Flight Track Log - Related Links

Times and Time Zones

All times are in EST time to prevent confusion due to time zone crossing. See the N319EE flight status page for this flight to view local times or setup timezone preferences in your user account.

Time Position Orientation Groundspeed Altitude Reporting Facility
EST Latitude Longitude Course Direction KTS MPH feet Rate Location/Type
Thu 04:09:47 PM 42.2358 -77.0508 332° Northwest 208 239 8,000  Level Cleveland Center
Thu 04:10:49 PM 42.2919 -77.0892 333° Northwest 226 260 9,100 908 Climbing Cleveland Center
Thu 04:11:46 PM 42.3514 -77.1317 332° Northwest 220 253 9,800 677 Climbing Cleveland Center
Thu 04:11:51 PM 42.3467 -77.1258 138° Southeast 221 254 9,800 500 Level Cleveland Center
Thu 04:11:58 PM 42.3592 -77.1364 328° Northwest 221 254 9,900 194 Climbing Cleveland Center
Thu 04:12:53 PM 42.4031 -77.1672 333° Northwest 227 261 10,000 100 Climbing Cleveland Center
Thu 04:12:58 PM 42.4211 -77.1781 336° Northwest 233 268 10,000  Level Cleveland Center
Thu 04:13:59 PM 42.4786 -77.2214 331° Northwest 238 274 10,000  Level Cleveland Center
Thu 04:14:00 PM 42.3450 -77.0390 330° Northwest  Level FlightAware Approximate
Thu 04:14:58 PM 42.5317 -77.2547 335° Northwest 236 272 10,000  Level Cleveland Center
Thu 04:15:00 PM 42.5369 -77.2592 328° Northwest 233 268 10,000  Level Cleveland Center
Thu 04:16:00 PM 42.5889 -77.2944 333° Northwest 233 268 10,000 -298 Level Cleveland Center
Thu 04:17:01 PM 42.6528 -77.3406 332° Northwest 237 273 9,400 -484 Descending Cleveland Center
Thu 04:17:02 PM 42.6467 -77.3358 150° Southeast 235 270 9,500 -1,048 Climbing Cleveland Center
Thu 04:18:04 PM 42.7086 -77.3769 334° Northwest 247 284 8,300 -1,150 Descending Cleveland Center
Thu 04:19:02 PM 42.7764 -77.4272 331° Northwest 243 280 7,200 -1,161 Descending Cleveland Center
Thu 04:19:06 PM 42.7803 -77.4281 351° North 246 283 7,100 -984 Descending Cleveland Center
Thu 04:20:03 PM 42.8389 -77.4667 334° Northwest 239 275 6,200 -871 Descending Cleveland Center
Thu 04:20:08 PM 42.8389 -77.4692 270° West 241 277 6,200 -200 Level Cleveland Center
Thu 04:21:03 PM 42.9083 -77.4703 359° North 247 284 6,000 -194 Descending Cleveland Center
Thu 04:21:10 PM 42.9081 -77.4708 236° Southwest 248 285 6,000  Level Cleveland Center
Thu 04:22:04 PM 42.9758 -77.4736 358° North 239 275 6,000  Level Cleveland Center
Thu 04:22:12 PM 42.9750 -77.4725 136° Southeast 244 281 6,000 -900 Level Cleveland Center
Thu 04:23:04 PM 43.0411 -77.4761 358° North 236 272 5,100 -1,065 Descending Cleveland Center
Thu 04:23:14 PM 43.0539 -77.4783 353° North 239 275 4,900 -1,377 Descending Cleveland Center
Thu 04:24:05 PM 43.1053 -77.4872 353° North 228 262 3,700 -1,355 Descending Cleveland Center
Thu 04:24:16 PM 43.1164 -77.4889 354° North 233 268 3,500 -1,082 Descending Cleveland Center
Thu 04:25:06 PM 43.1636 -77.4967 353° North 206 237 2,600 -968 Descending Cleveland Center
Thu 04:25:18 PM 43.1739 -77.4986 352° North 217 250 2,500 -80 Descending Cleveland Center
Thu 04:26:21 PM 43.2069 -77.5478 313° West 187 215 2,500  Level Cleveland Center
Thu 04:27:13 PM 43.2036 -77.6031 265° West 143 165 2,500  Level Cleveland Center
Thu 04:27:23 PM 43.2061 -77.6036 351° North 163 188 2,500 -787 Level Cleveland Center
Thu 04:28:14 PM 43.1694 -77.6344 212° Southwest 142 163 1,700 -774 Descending Cleveland Center
Thu 04:28:25 PM 43.1711 -77.6344 360° North 155 178 1,700 -740 Level Cleveland Center
Thu 04:29:27 PM 43.1325 -77.6667 211° Southwest 143 165 800 -532 Descending Cleveland Center
Thu 04:30:29 PM 43.1086 -77.6875 212° Southwest 133 153 600 -194 Descending Cleveland Center

Login

Don't have an account? Register now (free) for customized features, flight alerts, and more!